<?xml version="1.0" encoding="UTF-8" standalone="no" ?><gpx xmlns="http://www.topografix.com/GPX/1/1" xmlns:gpxx="http://www.garmin.com/xmlschemas/GpxExtensions/v3" xmlns:wptx1="http://www.garmin.com/xmlschemas/WaypointExtension/v1" xmlns:gpxtpx="http://www.garmin.com/xmlschemas/TrackPointExtension/v1" creator="GuideVTT.com" version="1.1" xmlns:xsi="http://www.w3.org/2001/XMLSchema-instance" xsi:schemaLocation="http://www.topografix.com/GPX/1/1 http://www.topografix.com/GPX/1/1/gpx.xsd http://www.garmin.com/xmlschemas/GpxExtensions/v3 http://www8.garmin.com/xmlschemas/GpxExtensionsv3.xsd http://www.garmin.com/xmlschemas/WaypointExtension/v1 http://www8.garmin.com/xmlschemas/WaypointExtensionv1.xsd http://www.garmin.com/xmlschemas/TrackPointExtension/v1 http://www.garmin.com/xmlschemas/TrackPointExtensionv1.xsd">
<metadata><link href="http://www.garmin.com"><text>Garmin International</text></link><time>2013-06-22T15:13:50Z</time></metadata>
<trk><name>parcours17.gpx</name><extensions><gpxx:TrackExtension><gpxx:DisplayColor>Cyan</gpxx:DisplayColor></gpxx:TrackExtension></extensions><trkseg>
<trkpt lat="46.19481670" lon="7.43155000"><ele>1348</ele><time>2003-09-20T14:40:52Z</time></trkpt>
<trkpt lat="46.19483330" lon="7.43158330"><ele>1348</ele><time>2003-09-20T14:40:55Z</time></trkpt>
<trkpt lat="46.19483330" lon="7.43188330"><ele>1347</ele><time>2003-09-20T14:41:08Z</time></trkpt>
<trkpt lat="46.19501670" lon="7.43295000"><ele>1352</ele><time>2003-09-20T14:41:45Z</time></trkpt>
<trkpt lat="46.19468330" lon="7.43426670"><ele>1355</ele><time>2003-09-20T14:42:16Z</time></trkpt>
<trkpt lat="46.19418330" lon="7.43548330"><ele>1355</ele><time>2003-09-20T14:42:48Z</time></trkpt>
<trkpt lat="46.19425000" lon="7.43571670"><ele>1356</ele><time>2003-09-20T14:43:00Z</time></trkpt>
<trkpt lat="46.19430000" lon="7.43578330"><ele>1355</ele><time>2003-09-20T14:43:03Z</time></trkpt>
<trkpt lat="46.19440000" lon="7.43628330"><ele>1357</ele><time>2003-09-20T14:43:28Z</time></trkpt>
<trkpt lat="46.19438330" lon="7.43653330"><ele>1361</ele><time>2003-09-20T14:43:39Z</time></trkpt>
<trkpt lat="46.19455000" lon="7.43756670"><ele>1373</ele><time>2003-09-20T14:44:29Z</time></trkpt>
<trkpt lat="46.19451670" lon="7.43796670"><ele>1379</ele><time>2003-09-20T14:44:49Z</time></trkpt>
<trkpt lat="46.19428330" lon="7.43885000"><ele>1391</ele><time>2003-09-20T14:45:34Z</time></trkpt>
<trkpt lat="46.19425000" lon="7.43908330"><ele>1392</ele><time>2003-09-20T14:45:45Z</time></trkpt>
<trkpt lat="46.19433330" lon="7.44005000"><ele>1398</ele><time>2003-09-20T14:46:31Z</time></trkpt>
<trkpt lat="46.19436670" lon="7.44063330"><ele>1404</ele><time>2003-09-20T14:47:00Z</time></trkpt>
<trkpt lat="46.19443330" lon="7.44035000"><ele>1405</ele><time>2003-09-20T14:47:18Z</time></trkpt>
<trkpt lat="46.19461670" lon="7.43980000"><ele>1410</ele><time>2003-09-20T14:47:45Z</time></trkpt>
<trkpt lat="46.19493330" lon="7.43916670"><ele>1417</ele><time>2003-09-20T14:48:18Z</time></trkpt>
<trkpt lat="46.19528330" lon="7.43863330"><ele>1420</ele><time>2003-09-20T14:48:47Z</time></trkpt>
<trkpt lat="46.19530000" lon="7.43876670"><ele>1421</ele><time>2003-09-20T14:48:56Z</time></trkpt>
<trkpt lat="46.19525000" lon="7.43885000"><ele>1423</ele><time>2003-09-20T14:49:01Z</time></trkpt>
<trkpt lat="46.19515000" lon="7.43913330"><ele>1426</ele><time>2003-09-20T14:49:17Z</time></trkpt>
<trkpt lat="46.19513330" lon="7.43981670"><ele>1431</ele><time>2003-09-20T14:49:53Z</time></trkpt>
<trkpt lat="46.19515000" lon="7.44010000"><ele>1434</ele><time>2003-09-20T14:50:09Z</time></trkpt>
<trkpt lat="46.19520000" lon="7.44025000"><ele>1435</ele><time>2003-09-20T14:50:21Z</time></trkpt>
<trkpt lat="46.19518330" lon="7.44026670"><ele>1435</ele><time>2003-09-20T14:50:23Z</time></trkpt>
<trkpt lat="46.19526670" lon="7.44056670"><ele>1439</ele><time>2003-09-20T14:50:42Z</time></trkpt>
<trkpt lat="46.19525000" lon="7.44061670"><ele>1440</ele><time>2003-09-20T14:50:46Z</time></trkpt>
<trkpt lat="46.19536670" lon="7.44143330"><ele>1449</ele><time>2003-09-20T14:51:34Z</time></trkpt>
<trkpt lat="46.19556670" lon="7.44228330"><ele>1457</ele><time>2003-09-20T14:52:25Z</time></trkpt>
<trkpt lat="46.19578330" lon="7.44301670"><ele>1466</ele><time>2003-09-20T14:53:11Z</time></trkpt>
<trkpt lat="46.19596670" lon="7.44398330"><ele>1479</ele><time>2003-09-20T14:54:10Z</time></trkpt>
<trkpt lat="46.19610000" lon="7.44423330"><ele>1482</ele><time>2003-09-20T14:54:29Z</time></trkpt>
<trkpt lat="46.19616670" lon="7.44446670"><ele>1484</ele><time>2003-09-20T14:54:44Z</time></trkpt>
<trkpt lat="46.19648330" lon="7.44510000"><ele>1492</ele><time>2003-09-20T14:55:29Z</time></trkpt>
<trkpt lat="46.19656670" lon="7.44533330"><ele>1494</ele><time>2003-09-20T14:55:44Z</time></trkpt>
<trkpt lat="46.19671670" lon="7.44563330"><ele>1494</ele><time>2003-09-20T14:56:13Z</time></trkpt>
<trkpt lat="46.19676670" lon="7.44588330"><ele>1497</ele><time>2003-09-20T14:56:26Z</time></trkpt>
<trkpt lat="46.19676670" lon="7.44618330"><ele>1503</ele><time>2003-09-20T14:56:42Z</time></trkpt>
<trkpt lat="46.19661670" lon="7.44800000"><ele>1528</ele><time>2003-09-20T14:58:22Z</time></trkpt>
<trkpt lat="46.19625000" lon="7.44875000"><ele>1535</ele><time>2003-09-20T14:59:23Z</time></trkpt>
<trkpt lat="46.19611670" lon="7.44880000"><ele>1540</ele><time>2003-09-20T14:59:44Z</time></trkpt>
<trkpt lat="46.19603330" lon="7.44891670"><ele>1540</ele><time>2003-09-20T15:02:55Z</time></trkpt>
<trkpt lat="46.19581670" lon="7.44900000"><ele>1543</ele><time>2003-09-20T15:03:13Z</time></trkpt>
<trkpt lat="46.19571670" lon="7.44913330"><ele>1544</ele><time>2003-09-20T15:03:27Z</time></trkpt>
<trkpt lat="46.19565000" lon="7.44913330"><ele>1550</ele><time>2003-09-20T15:03:47Z</time></trkpt>
<trkpt lat="46.19560000" lon="7.44901670"><ele>1555</ele><time>2003-09-20T15:05:24Z</time></trkpt>
<trkpt lat="46.19545000" lon="7.44990000"><ele>1562</ele><time>2003-09-20T15:06:14Z</time></trkpt>
<trkpt lat="46.19536670" lon="7.45020000"><ele>1565</ele><time>2003-09-20T15:06:27Z</time></trkpt>
<trkpt lat="46.19520000" lon="7.45138330"><ele>1581</ele><time>2003-09-20T15:07:24Z</time></trkpt>
<trkpt lat="46.19526670" lon="7.45190000"><ele>1584</ele><time>2003-09-20T15:07:54Z</time></trkpt>
<trkpt lat="46.19526670" lon="7.45218330"><ele>1589</ele><time>2003-09-20T15:08:08Z</time></trkpt>
<trkpt lat="46.19535000" lon="7.45273330"><ele>1593</ele><time>2003-09-20T15:08:41Z</time></trkpt>
<trkpt lat="46.19575000" lon="7.45421670"><ele>1598</ele><time>2003-09-20T15:10:12Z</time></trkpt>
<trkpt lat="46.19590000" lon="7.45488330"><ele>1609</ele><time>2003-09-20T15:10:50Z</time></trkpt>
<trkpt lat="46.19595000" lon="7.45556670"><ele>1615</ele><time>2003-09-20T15:11:23Z</time></trkpt>
<trkpt lat="46.19586670" lon="7.45595000"><ele>1622</ele><time>2003-09-20T15:11:49Z</time></trkpt>
<trkpt lat="46.19583330" lon="7.45618330"><ele>1628</ele><time>2003-09-20T15:12:03Z</time></trkpt>
<trkpt lat="46.19595000" lon="7.45661670"><ele>1632</ele><time>2003-09-20T15:12:34Z</time></trkpt>
<trkpt lat="46.19605000" lon="7.45723330"><ele>1643</ele><time>2003-09-20T15:13:16Z</time></trkpt>
<trkpt lat="46.19616670" lon="7.45745000"><ele>1644</ele><time>2003-09-20T15:13:34Z</time></trkpt>
<trkpt lat="46.19623330" lon="7.45795000"><ele>1648</ele><time>2003-09-20T15:14:06Z</time></trkpt>
<trkpt lat="46.19638330" lon="7.45811670"><ele>1648</ele><time>2003-09-20T15:14:21Z</time></trkpt>
<trkpt lat="46.19641670" lon="7.45831670"><ele>1650</ele><time>2003-09-20T15:14:31Z</time></trkpt>
<trkpt lat="46.19646670" lon="7.45906670"><ele>1651</ele><time>2003-09-20T15:15:01Z</time></trkpt>
<trkpt lat="46.19655000" lon="7.45966670"><ele>1650</ele><time>2003-09-20T15:15:22Z</time></trkpt>
<trkpt lat="46.19656670" lon="7.46050000"><ele>1657</ele><time>2003-09-20T15:15:51Z</time></trkpt>
<trkpt lat="46.19670000" lon="7.46103330"><ele>1662</ele><time>2003-09-20T15:16:15Z</time></trkpt>
<trkpt lat="46.19676670" lon="7.46145000"><ele>1658</ele><time>2003-09-20T15:16:33Z</time></trkpt>
<trkpt lat="46.19661670" lon="7.46260000"><ele>1674</ele><time>2003-09-20T15:17:21Z</time></trkpt>
<trkpt lat="46.19608330" lon="7.46355000"><ele>1676</ele><time>2003-09-20T15:18:11Z</time></trkpt>
<trkpt lat="46.19581670" lon="7.46443330"><ele>1684</ele><time>2003-09-20T15:19:06Z</time></trkpt>
<trkpt lat="46.19573330" lon="7.46438330"><ele>1686</ele><time>2003-09-20T15:19:19Z</time></trkpt>
<trkpt lat="46.19565000" lon="7.46423330"><ele>1687</ele><time>2003-09-20T15:19:35Z</time></trkpt>
<trkpt lat="46.19541670" lon="7.46356670"><ele>1690</ele><time>2003-09-20T15:20:15Z</time></trkpt>
<trkpt lat="46.19520000" lon="7.46320000"><ele>1691</ele><time>2003-09-20T15:20:40Z</time></trkpt>
<trkpt lat="46.19473330" lon="7.46283330"><ele>1691</ele><time>2003-09-20T15:21:11Z</time></trkpt>
<trkpt lat="46.19411670" lon="7.46265000"><ele>1695</ele><time>2003-09-20T15:21:37Z</time></trkpt>
<trkpt lat="46.19346670" lon="7.46206670"><ele>1703</ele><time>2003-09-20T15:22:10Z</time></trkpt>
<trkpt lat="46.19320000" lon="7.46193330"><ele>1704</ele><time>2003-09-20T15:22:23Z</time></trkpt>
<trkpt lat="46.19268330" lon="7.46148330"><ele>1707</ele><time>2003-09-20T15:22:55Z</time></trkpt>
<trkpt lat="46.19243330" lon="7.46160000"><ele>1709</ele><time>2003-09-20T15:23:08Z</time></trkpt>
<trkpt lat="46.19216670" lon="7.46203330"><ele>1711</ele><time>2003-09-20T15:23:29Z</time></trkpt>
<trkpt lat="46.19195000" lon="7.46251670"><ele>1711</ele><time>2003-09-20T15:23:52Z</time></trkpt>
<trkpt lat="46.19141670" lon="7.46340000"><ele>1714</ele><time>2003-09-20T15:24:36Z</time></trkpt>
<trkpt lat="46.19136670" lon="7.46340000"><ele>1717</ele><time>2003-09-20T15:24:39Z</time></trkpt>
<trkpt lat="46.19095000" lon="7.46275000"><ele>1727</ele><time>2003-09-20T15:25:12Z</time></trkpt>
<trkpt lat="46.19071670" lon="7.46258330"><ele>1733</ele><time>2003-09-20T15:25:28Z</time></trkpt>
<trkpt lat="46.19048330" lon="7.46193330"><ele>1736</ele><time>2003-09-20T15:25:57Z</time></trkpt>
<trkpt lat="46.19028330" lon="7.46168330"><ele>1739</ele><time>2003-09-20T15:26:11Z</time></trkpt>
<trkpt lat="46.18968330" lon="7.46118330"><ele>1742</ele><time>2003-09-20T15:26:44Z</time></trkpt>
<trkpt lat="46.18941670" lon="7.46061670"><ele>1743</ele><time>2003-09-20T15:27:04Z</time></trkpt>
<trkpt lat="46.18901670" lon="7.45943330"><ele>1752</ele><time>2003-09-20T15:27:48Z</time></trkpt>
<trkpt lat="46.18871670" lon="7.45921670"><ele>1751</ele><time>2003-09-20T15:28:06Z</time></trkpt>
<trkpt lat="46.18850000" lon="7.45883330"><ele>1751</ele><time>2003-09-20T15:28:18Z</time></trkpt>
<trkpt lat="46.18723330" lon="7.45890000"><ele>1746</ele><time>2003-09-20T15:28:51Z</time></trkpt>
<trkpt lat="46.18646670" lon="7.45861670"><ele>1743</ele><time>2003-09-20T15:29:05Z</time></trkpt>
<trkpt lat="46.18625000" lon="7.45845000"><ele>1743</ele><time>2003-09-20T15:29:10Z</time></trkpt>
<trkpt lat="46.18626670" lon="7.45803330"><ele>1743</ele><time>2003-09-20T15:29:16Z</time></trkpt>
<trkpt lat="46.18623330" lon="7.45703330"><ele>1743</ele><time>2003-09-20T15:29:28Z</time></trkpt>
<trkpt lat="46.18635000" lon="7.45601670"><ele>1736</ele><time>2003-09-20T15:29:41Z</time></trkpt>
<trkpt lat="46.18618330" lon="7.45503330"><ele>1735</ele><time>2003-09-20T15:29:58Z</time></trkpt>
<trkpt lat="46.18601670" lon="7.45435000"><ele>1734</ele><time>2003-09-20T15:30:14Z</time></trkpt>
<trkpt lat="46.18593330" lon="7.45251670"><ele>1732</ele><time>2003-09-20T15:30:58Z</time></trkpt>
<trkpt lat="46.18573330" lon="7.45198330"><ele>1730</ele><time>2003-09-20T15:31:11Z</time></trkpt>
<trkpt lat="46.18550000" lon="7.45148330"><ele>1730</ele><time>2003-09-20T15:31:25Z</time></trkpt>
<trkpt lat="46.18526670" lon="7.45073330"><ele>1731</ele><time>2003-09-20T15:31:44Z</time></trkpt>
<trkpt lat="46.18496670" lon="7.45028330"><ele>1730</ele><time>2003-09-20T15:31:58Z</time></trkpt>
<trkpt lat="46.18450000" lon="7.44983330"><ele>1732</ele><time>2003-09-20T15:32:15Z</time></trkpt>
<trkpt lat="46.18418330" lon="7.44936670"><ele>1733</ele><time>2003-09-20T15:32:29Z</time></trkpt>
<trkpt lat="46.18376670" lon="7.44880000"><ele>1734</ele><time>2003-09-20T15:32:46Z</time></trkpt>
<trkpt lat="46.18325000" lon="7.44855000"><ele>1735</ele><time>2003-09-20T15:33:02Z</time></trkpt>
<trkpt lat="46.18305000" lon="7.44810000"><ele>1737</ele><time>2003-09-20T15:33:13Z</time></trkpt>
<trkpt lat="46.18275000" lon="7.44765000"><ele>1739</ele><time>2003-09-20T15:33:27Z</time></trkpt>
<trkpt lat="46.18213330" lon="7.44726670"><ele>1745</ele><time>2003-09-20T15:33:49Z</time></trkpt>
<trkpt lat="46.18148330" lon="7.44730000"><ele>1747</ele><time>2003-09-20T15:34:10Z</time></trkpt>
<trkpt lat="46.18110000" lon="7.44745000"><ele>1748</ele><time>2003-09-20T15:34:23Z</time></trkpt>
<trkpt lat="46.18071670" lon="7.44788330"><ele>1750</ele><time>2003-09-20T15:34:39Z</time></trkpt>
<trkpt lat="46.17993330" lon="7.44845000"><ele>1751</ele><time>2003-09-20T15:35:12Z</time></trkpt>
<trkpt lat="46.17963330" lon="7.44878330"><ele>1750</ele><time>2003-09-20T15:35:26Z</time></trkpt>
<trkpt lat="46.17955000" lon="7.44878330"><ele>1754</ele><time>2003-09-20T15:35:36Z</time></trkpt>
<trkpt lat="46.17951670" lon="7.44883330"><ele>1747</ele><time>2003-09-20T15:38:30Z</time></trkpt>
<trkpt lat="46.17951670" lon="7.44876670"><ele>1747</ele><time>2003-09-20T15:39:23Z</time></trkpt>
<trkpt lat="46.17856670" lon="7.44901670"><ele>1753</ele><time>2003-09-20T15:40:49Z</time></trkpt>
<trkpt lat="46.17773330" lon="7.45005000"><ele>1751</ele><time>2003-09-20T15:41:12Z</time></trkpt>
<trkpt lat="46.17633330" lon="7.45065000"><ele>1747</ele><time>2003-09-20T15:41:38Z</time></trkpt>
<trkpt lat="46.17548330" lon="7.45131670"><ele>1747</ele><time>2003-09-20T15:41:55Z</time></trkpt>
<trkpt lat="46.17511670" lon="7.45205000"><ele>1747</ele><time>2003-09-20T15:42:08Z</time></trkpt>
<trkpt lat="46.17498330" lon="7.45223330"><ele>1746</ele><time>2003-09-20T15:42:13Z</time></trkpt>
<trkpt lat="46.17505000" lon="7.45185000"><ele>1743</ele><time>2003-09-20T15:42:22Z</time></trkpt>
<trkpt lat="46.17570000" lon="7.45013330"><ele>1735</ele><time>2003-09-20T15:42:40Z</time></trkpt>
<trkpt lat="46.17625000" lon="7.44913330"><ele>1735</ele><time>2003-09-20T15:42:52Z</time></trkpt>
<trkpt lat="46.17716670" lon="7.44778330"><ele>1733</ele><time>2003-09-20T15:43:08Z</time></trkpt>
<trkpt lat="46.17863330" lon="7.44623330"><ele>1727</ele><time>2003-09-20T15:43:28Z</time></trkpt>
<trkpt lat="46.17908330" lon="7.44586670"><ele>1717</ele><time>2003-09-20T15:43:35Z</time></trkpt>
<trkpt lat="46.17946670" lon="7.44550000"><ele>1707</ele><time>2003-09-20T15:43:41Z</time></trkpt>
<trkpt lat="46.18018330" lon="7.44453330"><ele>1691</ele><time>2003-09-20T15:43:54Z</time></trkpt>
<trkpt lat="46.18120000" lon="7.44370000"><ele>1671</ele><time>2003-09-20T15:44:10Z</time></trkpt>
<trkpt lat="46.18178330" lon="7.44345000"><ele>1667</ele><time>2003-09-20T15:44:19Z</time></trkpt>
<trkpt lat="46.18208330" lon="7.44353330"><ele>1662</ele><time>2003-09-20T15:44:23Z</time></trkpt>
<trkpt lat="46.18333330" lon="7.44460000"><ele>1650</ele><time>2003-09-20T15:44:36Z</time></trkpt>
<trkpt lat="46.18365000" lon="7.44473330"><ele>1647</ele><time>2003-09-20T15:44:39Z</time></trkpt>
<trkpt lat="46.18455000" lon="7.44541670"><ele>1638</ele><time>2003-09-20T15:44:50Z</time></trkpt>
<trkpt lat="46.18545000" lon="7.44570000"><ele>1631</ele><time>2003-09-20T15:45:02Z</time></trkpt>
<trkpt lat="46.18623330" lon="7.44643330"><ele>1623</ele><time>2003-09-20T15:45:17Z</time></trkpt>
<trkpt lat="46.18633330" lon="7.44655000"><ele>1622</ele><time>2003-09-20T15:45:19Z</time></trkpt>
<trkpt lat="46.18670000" lon="7.44728330"><ele>1618</ele><time>2003-09-20T15:45:27Z</time></trkpt>
<trkpt lat="46.18736670" lon="7.44831670"><ele>1617</ele><time>2003-09-20T15:45:36Z</time></trkpt>
<trkpt lat="46.18803330" lon="7.44950000"><ele>1614</ele><time>2003-09-20T15:45:46Z</time></trkpt>
<trkpt lat="46.18818330" lon="7.44988330"><ele>1611</ele><time>2003-09-20T15:45:49Z</time></trkpt>
<trkpt lat="46.18885000" lon="7.45031670"><ele>1607</ele><time>2003-09-20T15:45:57Z</time></trkpt>
<trkpt lat="46.18910000" lon="7.45073330"><ele>1602</ele><time>2003-09-20T15:46:04Z</time></trkpt>
<trkpt lat="46.18908330" lon="7.45046670"><ele>1600</ele><time>2003-09-20T15:46:09Z</time></trkpt>
<trkpt lat="46.18903330" lon="7.45031670"><ele>1599</ele><time>2003-09-20T15:46:11Z</time></trkpt>
<trkpt lat="46.18866670" lon="7.44965000"><ele>1596</ele><time>2003-09-20T15:46:19Z</time></trkpt>
<trkpt lat="46.18810000" lon="7.44830000"><ele>1584</ele><time>2003-09-20T15:46:32Z</time></trkpt>
<trkpt lat="46.18773330" lon="7.44688330"><ele>1571</ele><time>2003-09-20T15:46:44Z</time></trkpt>
<trkpt lat="46.18765000" lon="7.44628330"><ele>1566</ele><time>2003-09-20T15:46:49Z</time></trkpt>
<trkpt lat="46.18776670" lon="7.44555000"><ele>1560</ele><time>2003-09-20T15:46:55Z</time></trkpt>
<trkpt lat="46.18766670" lon="7.44518330"><ele>1556</ele><time>2003-09-20T15:47:00Z</time></trkpt>
<trkpt lat="46.18731670" lon="7.44458330"><ele>1549</ele><time>2003-09-20T15:47:07Z</time></trkpt>
<trkpt lat="46.18698330" lon="7.44356670"><ele>1539</ele><time>2003-09-20T15:47:15Z</time></trkpt>
<trkpt lat="46.18693330" lon="7.44331670"><ele>1537</ele><time>2003-09-20T15:47:17Z</time></trkpt>
<trkpt lat="46.18676670" lon="7.44293330"><ele>1534</ele><time>2003-09-20T15:47:21Z</time></trkpt>
<trkpt lat="46.18643330" lon="7.44240000"><ele>1528</ele><time>2003-09-20T15:47:27Z</time></trkpt>
<trkpt lat="46.18615000" lon="7.44215000"><ele>1523</ele><time>2003-09-20T15:47:31Z</time></trkpt>
<trkpt lat="46.18570000" lon="7.44190000"><ele>1518</ele><time>2003-09-20T15:47:36Z</time></trkpt>
<trkpt lat="46.18545000" lon="7.44163330"><ele>1514</ele><time>2003-09-20T15:47:39Z</time></trkpt>
<trkpt lat="46.18521670" lon="7.44108330"><ele>1509</ele><time>2003-09-20T15:47:44Z</time></trkpt>
<trkpt lat="46.18476670" lon="7.44078330"><ele>1507</ele><time>2003-09-20T15:47:49Z</time></trkpt>
<trkpt lat="46.18443330" lon="7.44010000"><ele>1506</ele><time>2003-09-20T15:47:54Z</time></trkpt>
<trkpt lat="46.18423330" lon="7.43961670"><ele>1504</ele><time>2003-09-20T15:47:57Z</time></trkpt>
<trkpt lat="46.18403330" lon="7.43878330"><ele>1497</ele><time>2003-09-20T15:48:03Z</time></trkpt>
<trkpt lat="46.18406670" lon="7.43838330"><ele>1493</ele><time>2003-09-20T15:48:06Z</time></trkpt>
<trkpt lat="46.18386670" lon="7.43795000"><ele>1489</ele><time>2003-09-20T15:48:11Z</time></trkpt>
<trkpt lat="46.18325000" lon="7.43715000"><ele>1479</ele><time>2003-09-20T15:48:23Z</time></trkpt>
<trkpt lat="46.18303330" lon="7.43706670"><ele>1461</ele><time>2003-09-20T15:49:45Z</time></trkpt>
<trkpt lat="46.18300000" lon="7.43703330"><ele>1462</ele><time>2003-09-20T15:49:54Z</time></trkpt>
<trkpt lat="46.18231670" lon="7.43706670"><ele>1457</ele><time>2003-09-20T15:50:09Z</time></trkpt>
<trkpt lat="46.18125000" lon="7.43703330"><ele>1453</ele><time>2003-09-20T15:50:30Z</time></trkpt>
<trkpt lat="46.18093330" lon="7.43770000"><ele>1453</ele><time>2003-09-20T15:50:38Z</time></trkpt>
<trkpt lat="46.18081670" lon="7.43781670"><ele>1452</ele><time>2003-09-20T15:50:41Z</time></trkpt>
<trkpt lat="46.18075000" lon="7.43778330"><ele>1449</ele><time>2003-09-20T15:50:46Z</time></trkpt>
<trkpt lat="46.18086670" lon="7.43736670"><ele>1449</ele><time>2003-09-20T15:51:00Z</time></trkpt>
<trkpt lat="46.18111670" lon="7.43675000"><ele>1449</ele><time>2003-09-20T15:51:14Z</time></trkpt>
<trkpt lat="46.18180000" lon="7.43618330"><ele>1445</ele><time>2003-09-20T15:51:27Z</time></trkpt>
<trkpt lat="46.18223330" lon="7.43616670"><ele>1444</ele><time>2003-09-20T15:51:34Z</time></trkpt>
<trkpt lat="46.18295000" lon="7.43628330"><ele>1440</ele><time>2003-09-20T15:51:44Z</time></trkpt>
<trkpt lat="46.18318330" lon="7.43628330"><ele>1437</ele><time>2003-09-20T15:51:47Z</time></trkpt>
<trkpt lat="46.18400000" lon="7.43661670"><ele>1432</ele><time>2003-09-20T15:51:57Z</time></trkpt>
<trkpt lat="46.18458330" lon="7.43691670"><ele>1430</ele><time>2003-09-20T15:52:04Z</time></trkpt>
<trkpt lat="46.18485000" lon="7.43728330"><ele>1427</ele><time>2003-09-20T15:52:08Z</time></trkpt>
<trkpt lat="46.18518330" lon="7.43778330"><ele>1425</ele><time>2003-09-20T15:52:13Z</time></trkpt>
<trkpt lat="46.18603330" lon="7.43893330"><ele>1419</ele><time>2003-09-20T15:52:26Z</time></trkpt>
<trkpt lat="46.18641670" lon="7.43956670"><ele>1417</ele><time>2003-09-20T15:52:33Z</time></trkpt>
<trkpt lat="46.18761670" lon="7.44041670"><ele>1413</ele><time>2003-09-20T15:52:47Z</time></trkpt>
<trkpt lat="46.18818330" lon="7.44125000"><ele>1410</ele><time>2003-09-20T15:52:56Z</time></trkpt>
<trkpt lat="46.18903330" lon="7.44228330"><ele>1406</ele><time>2003-09-20T15:53:09Z</time></trkpt>
<trkpt lat="46.18925000" lon="7.44285000"><ele>1403</ele><time>2003-09-20T15:53:14Z</time></trkpt>
<trkpt lat="46.18933330" lon="7.44318330"><ele>1402</ele><time>2003-09-20T15:53:17Z</time></trkpt>
<trkpt lat="46.18970000" lon="7.44401670"><ele>1400</ele><time>2003-09-20T15:53:25Z</time></trkpt>
<trkpt lat="46.18983330" lon="7.44491670"><ele>1398</ele><time>2003-09-20T15:53:33Z</time></trkpt>
<trkpt lat="46.19005000" lon="7.44525000"><ele>1398</ele><time>2003-09-20T15:53:37Z</time></trkpt>
<trkpt lat="46.19028330" lon="7.44543330"><ele>1397</ele><time>2003-09-20T15:53:40Z</time></trkpt>
<trkpt lat="46.19078330" lon="7.44631670"><ele>1395</ele><time>2003-09-20T15:53:49Z</time></trkpt>
<trkpt lat="46.19101670" lon="7.44685000"><ele>1395</ele><time>2003-09-20T15:53:54Z</time></trkpt>
<trkpt lat="46.19113330" lon="7.44741670"><ele>1393</ele><time>2003-09-20T15:53:59Z</time></trkpt>
<trkpt lat="46.19118330" lon="7.44800000"><ele>1392</ele><time>2003-09-20T15:54:04Z</time></trkpt>
<trkpt lat="46.19148330" lon="7.44865000"><ele>1389</ele><time>2003-09-20T15:54:11Z</time></trkpt>
<trkpt lat="46.19198330" lon="7.44960000"><ele>1387</ele><time>2003-09-20T15:54:21Z</time></trkpt>
<trkpt lat="46.19206670" lon="7.45066670"><ele>1388</ele><time>2003-09-20T15:54:33Z</time></trkpt>
<trkpt lat="46.19228330" lon="7.45078330"><ele>1387</ele><time>2003-09-20T15:54:37Z</time></trkpt>
<trkpt lat="46.19246670" lon="7.45071670"><ele>1387</ele><time>2003-09-20T15:54:40Z</time></trkpt>
<trkpt lat="46.19296670" lon="7.44863330"><ele>1384</ele><time>2003-09-20T15:55:01Z</time></trkpt>
<trkpt lat="46.19333330" lon="7.44771670"><ele>1383</ele><time>2003-09-20T15:55:11Z</time></trkpt>
<trkpt lat="46.19343330" lon="7.44721670"><ele>1383</ele><time>2003-09-20T15:55:16Z</time></trkpt>
<trkpt lat="46.19336670" lon="7.44670000"><ele>1384</ele><time>2003-09-20T15:55:21Z</time></trkpt>
<trkpt lat="46.19335000" lon="7.44593330"><ele>1385</ele><time>2003-09-20T15:55:28Z</time></trkpt>
<trkpt lat="46.19350000" lon="7.44551670"><ele>1384</ele><time>2003-09-20T15:55:32Z</time></trkpt>
<trkpt lat="46.19378330" lon="7.44513330"><ele>1384</ele><time>2003-09-20T15:55:37Z</time></trkpt>
<trkpt lat="46.19425000" lon="7.44360000"><ele>1381</ele><time>2003-09-20T15:55:52Z</time></trkpt>
<trkpt lat="46.19425000" lon="7.44315000"><ele>1380</ele><time>2003-09-20T15:55:56Z</time></trkpt>
<trkpt lat="46.19410000" lon="7.44220000"><ele>1380</ele><time>2003-09-20T15:56:04Z</time></trkpt>
<trkpt lat="46.19355000" lon="7.43996670"><ele>1380</ele><time>2003-09-20T15:56:23Z</time></trkpt>
<trkpt lat="46.19355000" lon="7.43906670"><ele>1373</ele><time>2003-09-20T15:56:30Z</time></trkpt>
<trkpt lat="46.19370000" lon="7.43860000"><ele>1369</ele><time>2003-09-20T15:56:34Z</time></trkpt>
<trkpt lat="46.19386670" lon="7.43751670"><ele>1362</ele><time>2003-09-20T15:56:42Z</time></trkpt>
<trkpt lat="46.19388330" lon="7.43705000"><ele>1363</ele><time>2003-09-20T15:56:46Z</time></trkpt>
<trkpt lat="46.19410000" lon="7.43595000"><ele>1362</ele><time>2003-09-20T15:56:59Z</time></trkpt>
<trkpt lat="46.19430000" lon="7.43526670"><ele>1362</ele><time>2003-09-20T15:57:11Z</time></trkpt>
<trkpt lat="46.19438330" lon="7.43486670"><ele>1362</ele><time>2003-09-20T15:57:17Z</time></trkpt>
<trkpt lat="46.19481670" lon="7.43381670"><ele>1361</ele><time>2003-09-20T15:57:31Z</time></trkpt>
<trkpt lat="46.19500000" lon="7.43305000"><ele>1360</ele><time>2003-09-20T15:57:41Z</time></trkpt>
<trkpt lat="46.19500000" lon="7.43258330"><ele>1359</ele><time>2003-09-20T15:57:48Z</time></trkpt>
<trkpt lat="46.19485000" lon="7.43176670"><ele>1359</ele><time>2003-09-20T15:57:58Z</time></trkpt>
</trkseg></trk></gpx>